sensor_id;sensor_type;location;lat;lon;timestamp;P1;durP1;ratioP1;P2;durP2;ratioP2
70233;SDS011;57622;42.630;23.378;2022-07-23T00:00:30;10.88;;;4.45;;
70233;SDS011;57622;42.630;23.378;2022-07-23T00:02:55;13.65;;;4.80;;
70233;SDS011;57622;42.630;23.378;2022-07-23T00:05:21;9.98;;;4.68;;
70233;SDS011;57622;42.630;23.378;2022-07-23T00:07:46;12.80;;;4.70;;
70233;SDS011;57622;42.630;23.378;2022-07-23T00:10:12;13.88;;;4.80;;
70233;SDS011;57622;42.630;23.378;2022-07-23T00:12:38;10.68;;;5.15;;
70233;SDS011;57622;42.630;23.378;2022-07-23T00:15:04;9.73;;;5.07;;
70233;SDS011;57622;42.630;23.378;2022-07-23T00:17:31;10.93;;;5.18;;
70233;SDS011;57622;42.630;23.378;2022-07-23T00:19:56;12.18;;;5.45;;
70233;SDS011;57622;42.630;23.378;2022-07-23T00:22:22;11.63;;;4.88;;
70233;SDS011;57622;42.630;23.378;2022-07-23T00:24:48;11.82;;;5.15;;
70233;SDS011;57622;42.630;23.378;2022-07-23T00:27:13;10.57;;;5.47;;
70233;SDS011;57622;42.630;23.378;2022-07-23T00:29:39;14.02;;;5.00;;
70233;SDS011;57622;42.630;23.378;2022-07-23T00:32:04;11.18;;;5.57;;
70233;SDS011;57622;42.630;23.378;2022-07-23T00:34:30;9.20;;;4.72;;
70233;SDS011;57622;42.630;23.378;2022-07-23T00:36:56;13.40;;;5.30;;
70233;SDS011;57622;42.630;23.378;2022-07-23T00:39:21;10.77;;;5.68;;
70233;SDS011;57622;42.630;23.378;2022-07-23T00:41:47;12.05;;;5.57;;
70233;SDS011;57622;42.630;23.378;2022-07-23T00:44:20;10.25;;;5.25;;
70233;SDS011;57622;42.630;23.378;2022-07-23T00:46:52;10.00;;;4.80;;
70233;SDS011;57622;42.630;23.378;2022-07-23T00:49:21;13.73;;;6.07;;
70233;SDS011;57622;42.630;23.378;2022-07-23T00:51:48;10.13;;;5.20;;
70233;SDS011;57622;42.630;23.378;2022-07-23T00:54:14;10.13;;;5.03;;
70233;SDS011;57622;42.630;23.378;2022-07-23T00:56:42;10.18;;;5.65;;
70233;SDS011;57622;42.630;23.378;2022-07-23T00:59:09;9.47;;;4.93;;
70233;SDS011;57622;42.630;23.378;2022-07-23T01:01:35;9.80;;;5.28;;
70233;SDS011;57622;42.630;23.378;2022-07-23T01:04:01;10.88;;;5.40;;
70233;SDS011;57622;42.630;23.378;2022-07-23T01:06:27;11.20;;;5.60;;
70233;SDS011;57622;42.630;23.378;2022-07-23T01:08:53;12.68;;;5.60;;
70233;SDS011;57622;42.630;23.378;2022-07-23T01:11:20;13.68;;;6.18;;
70233;SDS011;57622;42.630;23.378;2022-07-23T01:13:47;13.23;;;5.47;;
70233;SDS011;57622;42.630;23.378;2022-07-23T01:16:13;11.15;;;5.43;;
70233;SDS011;57622;42.630;23.378;2022-07-23T01:18:38;13.35;;;5.65;;
70233;SDS011;57622;42.630;23.378;2022-07-23T01:21:04;11.85;;;5.55;;
70233;SDS011;57622;42.630;23.378;2022-07-23T01:23:30;9.75;;;5.13;;
70233;SDS011;57622;42.630;23.378;2022-07-23T01:25:55;10.05;;;5.25;;
70233;SDS011;57622;42.630;23.378;2022-07-23T01:28:21;11.90;;;6.05;;
70233;SDS011;57622;42.630;23.378;2022-07-23T01:30:47;9.57;;;5.13;;
70233;SDS011;57622;42.630;23.378;2022-07-23T01:33:13;8.82;;;4.88;;
70233;SDS011;57622;42.630;23.378;2022-07-23T01:35:39;12.25;;;5.30;;
70233;SDS011;57622;42.630;23.378;2022-07-23T01:38:04;11.82;;;5.43;;
70233;SDS011;57622;42.630;23.378;2022-07-23T01:40:30;12.65;;;5.50;;
70233;SDS011;57622;42.630;23.378;2022-07-23T01:42:55;12.00;;;5.28;;
70233;SDS011;57622;42.630;23.378;2022-07-23T01:45:21;10.95;;;4.75;;
70233;SDS011;57622;42.630;23.378;2022-07-23T01:47:47;12.05;;;5.28;;
70233;SDS011;57622;42.630;23.378;2022-07-23T01:50:13;13.80;;;5.65;;
70233;SDS011;57622;42.630;23.378;2022-07-23T01:52:38;14.35;;;5.50;;
70233;SDS011;57622;42.630;23.378;2022-07-23T01:55:04;11.65;;;4.75;;
70233;SDS011;57622;42.630;23.378;2022-07-23T01:57:30;14.68;;;5.25;;
70233;SDS011;57622;42.630;23.378;2022-07-23T01:59:56;11.80;;;5.30;;
70233;SDS011;57622;42.630;23.378;2022-07-23T02:02:21;11.45;;;5.50;;
70233;SDS011;57622;42.630;23.378;2022-07-23T02:04:47;11.50;;;5.60;;
70233;SDS011;57622;42.630;23.378;2022-07-23T02:07:12;14.07;;;6.00;;
70233;SDS011;57622;42.630;23.378;2022-07-23T02:09:38;10.75;;;5.28;;
70233;SDS011;57622;42.630;23.378;2022-07-23T02:12:03;10.30;;;5.60;;
70233;SDS011;57622;42.630;23.378;2022-07-23T02:14:29;11.00;;;5.47;;
70233;SDS011;57622;42.630;23.378;2022-07-23T02:16:54;11.70;;;5.45;;
70233;SDS011;57622;42.630;23.378;2022-07-23T02:19:20;10.85;;;5.30;;
70233;SDS011;57622;42.630;23.378;2022-07-23T02:21:46;11.57;;;5.15;;
70233;SDS011;57622;42.630;23.378;2022-07-23T02:24:11;11.88;;;5.50;;
70233;SDS011;57622;42.630;23.378;2022-07-23T02:26:37;10.90;;;5.45;;
70233;SDS011;57622;42.630;23.378;2022-07-23T02:29:03;12.90;;;5.38;;
70233;SDS011;57622;42.630;23.378;2022-07-23T02:31:29;10.52;;;5.20;;
70233;SDS011;57622;42.630;23.378;2022-07-23T02:33:55;10.75;;;5.55;;
70233;SDS011;57622;42.630;23.378;2022-07-23T02:36:20;13.20;;;5.30;;
70233;SDS011;57622;42.630;23.378;2022-07-23T02:38:46;12.63;;;5.32;;
70233;SDS011;57622;42.630;23.378;2022-07-23T02:41:12;11.85;;;5.35;;
70233;SDS011;57622;42.630;23.378;2022-07-23T02:43:37;12.57;;;5.47;;
70233;SDS011;57622;42.630;23.378;2022-07-23T02:46:03;13.35;;;5.78;;
70233;SDS011;57622;42.630;23.378;2022-07-23T02:48:29;12.90;;;5.40;;
70233;SDS011;57622;42.630;23.378;2022-07-23T02:50:55;13.77;;;5.30;;
70233;SDS011;57622;42.630;23.378;2022-07-23T02:53:21;12.15;;;5.70;;
70233;SDS011;57622;42.630;23.378;2022-07-23T02:55:50;10.75;;;5.30;;
70233;SDS011;57622;42.630;23.378;2022-07-23T02:58:15;9.82;;;5.38;;
70233;SDS011;57622;42.630;23.378;2022-07-23T03:00:41;11.00;;;5.35;;
70233;SDS011;57622;42.630;23.378;2022-07-23T03:03:06;10.73;;;5.70;;
70233;SDS011;57622;42.630;23.378;2022-07-23T03:05:32;9.63;;;5.35;;
70233;SDS011;57622;42.630;23.378;2022-07-23T03:07:59;12.70;;;5.50;;
70233;SDS011;57622;42.630;23.378;2022-07-23T03:10:24;10.88;;;5.28;;
70233;SDS011;57622;42.630;23.378;2022-07-23T03:12:50;12.88;;;5.75;;
70233;SDS011;57622;42.630;23.378;2022-07-23T03:15:15;11.70;;;5.13;;
70233;SDS011;57622;42.630;23.378;2022-07-23T03:17:41;12.90;;;5.30;;
70233;SDS011;57622;42.630;23.378;2022-07-23T03:20:06;11.57;;;5.55;;
70233;SDS011;57622;42.630;23.378;2022-07-23T03:22:33;12.13;;;5.63;;
70233;SDS011;57622;42.630;23.378;2022-07-23T03:24:58;13.15;;;5.90;;
70233;SDS011;57622;42.630;23.378;2022-07-23T03:27:24;11.27;;;5.30;;
70233;SDS011;57622;42.630;23.378;2022-07-23T03:29:52;14.90;;;6.20;;
70233;SDS011;57622;42.630;23.378;2022-07-23T03:32:19;10.30;;;5.47;;
70233;SDS011;57622;42.630;23.378;2022-07-23T03:34:45;11.75;;;5.40;;
70233;SDS011;57622;42.630;23.378;2022-07-23T03:37:10;10.25;;;5.35;;
70233;SDS011;57622;42.630;23.378;2022-07-23T03:39:36;12.52;;;5.05;;
70233;SDS011;57622;42.630;23.378;2022-07-23T03:42:02;12.57;;;5.85;;
70233;SDS011;57622;42.630;23.378;2022-07-23T03:44:27;12.23;;;5.85;;
70233;SDS011;57622;42.630;23.378;2022-07-23T03:46:53;10.73;;;5.78;;
70233;SDS011;57622;42.630;23.378;2022-07-23T03:49:18;13.45;;;6.15;;
70233;SDS011;57622;42.630;23.378;2022-07-23T03:51:44;10.25;;;5.47;;
70233;SDS011;57622;42.630;23.378;2022-07-23T03:54:09;14.75;;;6.00;;
70233;SDS011;57622;42.630;23.378;2022-07-23T03:56:35;14.80;;;6.05;;
70233;SDS011;57622;42.630;23.378;2022-07-23T03:59:01;12.43;;;5.70;;
70233;SDS011;57622;42.630;23.378;2022-07-23T04:01:26;16.85;;;5.90;;
70233;SDS011;57622;42.630;23.378;2022-07-23T04:03:52;12.30;;;6.00;;
70233;SDS011;57622;42.630;23.378;2022-07-23T04:06:17;11.85;;;5.70;;
70233;SDS011;57622;42.630;23.378;2022-07-23T04:08:43;11.32;;;6.18;;
70233;SDS011;57622;42.630;23.378;2022-07-23T04:11:08;11.50;;;5.88;;
70233;SDS011;57622;42.630;23.378;2022-07-23T04:13:34;12.15;;;6.20;;
70233;SDS011;57622;42.630;23.378;2022-07-23T04:15:59;9.60;;;5.50;;
70233;SDS011;57622;42.630;23.378;2022-07-23T04:18:25;10.85;;;5.65;;
70233;SDS011;57622;42.630;23.378;2022-07-23T04:20:50;15.63;;;6.35;;
70233;SDS011;57622;42.630;23.378;2022-07-23T04:23:16;17.42;;;6.40;;
70233;SDS011;57622;42.630;23.378;2022-07-23T04:25:42;13.98;;;6.00;;
70233;SDS011;57622;42.630;23.378;2022-07-23T04:28:08;10.63;;;5.95;;
70233;SDS011;57622;42.630;23.378;2022-07-23T04:30:34;18.10;;;5.97;;
70233;SDS011;57622;42.630;23.378;2022-07-23T04:32:59;11.55;;;5.88;;
70233;SDS011;57622;42.630;23.378;2022-07-23T04:35:25;11.18;;;5.63;;
70233;SDS011;57622;42.630;23.378;2022-07-23T04:37:50;14.95;;;6.20;;
70233;SDS011;57622;42.630;23.378;2022-07-23T04:40:16;13.35;;;5.78;;
70233;SDS011;57622;42.630;23.378;2022-07-23T04:42:41;12.18;;;5.78;;
70233;SDS011;57622;42.630;23.378;2022-07-23T04:45:07;11.48;;;6.28;;
70233;SDS011;57622;42.630;23.378;2022-07-23T04:47:32;11.38;;;6.07;;
70233;SDS011;57622;42.630;23.378;2022-07-23T04:49:58;16.08;;;6.35;;
70233;SDS011;57622;42.630;23.378;2022-07-23T04:52:23;16.98;;;6.20;;
70233;SDS011;57622;42.630;23.378;2022-07-23T04:54:49;15.40;;;5.85;;
70233;SDS011;57622;42.630;23.378;2022-07-23T04:57:15;15.65;;;6.40;;
70233;SDS011;57622;42.630;23.378;2022-07-23T04:59:41;11.23;;;6.10;;
70233;SDS011;57622;42.630;23.378;2022-07-23T05:02:06;13.32;;;6.25;;
70233;SDS011;57622;42.630;23.378;2022-07-23T05:04:32;13.10;;;5.85;;
70233;SDS011;57622;42.630;23.378;2022-07-23T05:06:57;15.55;;;6.43;;
70233;SDS011;57622;42.630;23.378;2022-07-23T05:09:23;14.10;;;6.30;;
70233;SDS011;57622;42.630;23.378;2022-07-23T05:11:49;11.65;;;6.43;;
70233;SDS011;57622;42.630;23.378;2022-07-23T05:14:14;12.95;;;6.35;;
70233;SDS011;57622;42.630;23.378;2022-07-23T05:16:40;11.40;;;6.30;;
70233;SDS011;57622;42.630;23.378;2022-07-23T05:19:06;14.00;;;6.65;;
70233;SDS011;57622;42.630;23.378;2022-07-23T05:21:31;12.88;;;6.13;;
70233;SDS011;57622;42.630;23.378;2022-07-23T05:23:57;16.60;;;6.53;;
70233;SDS011;57622;42.630;23.378;2022-07-23T05:26:23;14.15;;;6.32;;
70233;SDS011;57622;42.630;23.378;2022-07-23T05:28:49;13.55;;;6.90;;
70233;SDS011;57622;42.630;23.378;2022-07-23T05:31:15;15.00;;;6.70;;
70233;SDS011;57622;42.630;23.378;2022-07-23T05:33:41;13.65;;;7.00;;
70233;SDS011;57622;42.630;23.378;2022-07-23T05:36:06;15.75;;;6.72;;
70233;SDS011;57622;42.630;23.378;2022-07-23T05:38:32;18.45;;;7.82;;
70233;SDS011;57622;42.630;23.378;2022-07-23T05:40:58;15.77;;;7.28;;
70233;SDS011;57622;42.630;23.378;2022-07-23T05:43:24;15.43;;;7.40;;
70233;SDS011;57622;42.630;23.378;2022-07-23T05:45:49;16.30;;;7.45;;
70233;SDS011;57622;42.630;23.378;2022-07-23T05:48:15;16.02;;;7.63;;
70233;SDS011;57622;42.630;23.378;2022-07-23T05:50:40;15.95;;;7.25;;
70233;SDS011;57622;42.630;23.378;2022-07-23T05:53:06;15.70;;;8.02;;
70233;SDS011;57622;42.630;23.378;2022-07-23T05:55:32;17.70;;;8.30;;
70233;SDS011;57622;42.630;23.378;2022-07-23T05:57:58;16.52;;;7.35;;
70233;SDS011;57622;42.630;23.378;2022-07-23T06:00:24;13.70;;;6.57;;
70233;SDS011;57622;42.630;23.378;2022-07-23T06:02:50;16.33;;;6.65;;
70233;SDS011;57622;42.630;23.378;2022-07-23T06:05:16;12.88;;;6.57;;
70233;SDS011;57622;42.630;23.378;2022-07-23T06:07:42;13.52;;;6.70;;
70233;SDS011;57622;42.630;23.378;2022-07-23T06:10:07;15.98;;;6.88;;
70233;SDS011;57622;42.630;23.378;2022-07-23T06:12:34;15.98;;;6.90;;
70233;SDS011;57622;42.630;23.378;2022-07-23T06:14:59;12.60;;;6.75;;
70233;SDS011;57622;42.630;23.378;2022-07-23T06:17:25;17.58;;;6.97;;
70233;SDS011;57622;42.630;23.378;2022-07-23T06:19:51;15.02;;;6.43;;
70233;SDS011;57622;42.630;23.378;2022-07-23T06:22:17;11.07;;;6.30;;
70233;SDS011;57622;42.630;23.378;2022-07-23T06:24:43;12.15;;;6.68;;
70233;SDS011;57622;42.630;23.378;2022-07-23T06:27:08;14.32;;;6.55;;
70233;SDS011;57622;42.630;23.378;2022-07-23T06:29:33;18.20;;;6.45;;
70233;SDS011;57622;42.630;23.378;2022-07-23T06:31:59;18.42;;;6.32;;
70233;SDS011;57622;42.630;23.378;2022-07-23T06:34:24;14.52;;;6.68;;
70233;SDS011;57622;42.630;23.378;2022-07-23T06:36:50;12.38;;;6.47;;
70233;SDS011;57622;42.630;23.378;2022-07-23T06:39:15;13.88;;;6.88;;
70233;SDS011;57622;42.630;23.378;2022-07-23T06:41:41;15.50;;;6.43;;
70233;SDS011;57622;42.630;23.378;2022-07-23T06:44:07;12.05;;;6.30;;
70233;SDS011;57622;42.630;23.378;2022-07-23T06:46:32;14.27;;;6.63;;
70233;SDS011;57622;42.630;23.378;2022-07-23T06:48:58;17.40;;;6.50;;
70233;SDS011;57622;42.630;23.378;2022-07-23T06:51:24;13.30;;;6.10;;
70233;SDS011;57622;42.630;23.378;2022-07-23T06:53:49;13.43;;;6.63;;
70233;SDS011;57622;42.630;23.378;2022-07-23T06:56:15;12.40;;;6.28;;
70233;SDS011;57622;42.630;23.378;2022-07-23T06:58:40;16.00;;;6.47;;
70233;SDS011;57622;42.630;23.378;2022-07-23T07:01:06;15.27;;;5.90;;
70233;SDS011;57622;42.630;23.378;2022-07-23T07:03:31;12.90;;;6.40;;
70233;SDS011;57622;42.630;23.378;2022-07-23T07:05:57;20.85;;;6.53;;
70233;SDS011;57622;42.630;23.378;2022-07-23T07:08:22;16.13;;;5.97;;
70233;SDS011;57622;42.630;23.378;2022-07-23T07:10:49;10.90;;;6.13;;
70233;SDS011;57622;42.630;23.378;2022-07-23T07:13:14;12.18;;;6.57;;
70233;SDS011;57622;42.630;23.378;2022-07-23T07:15:40;13.13;;;5.90;;
70233;SDS011;57622;42.630;23.378;2022-07-23T07:18:06;11.27;;;5.93;;
70233;SDS011;57622;42.630;23.378;2022-07-23T07:20:31;13.18;;;6.38;;
70233;SDS011;57622;42.630;23.378;2022-07-23T07:22:57;12.10;;;5.10;;
70233;SDS011;57622;42.630;23.378;2022-07-23T07:25:22;14.55;;;6.22;;
70233;SDS011;57622;42.630;23.378;2022-07-23T07:27:47;14.15;;;6.82;;
70233;SDS011;57622;42.630;23.378;2022-07-23T07:30:13;13.55;;;6.22;;
70233;SDS011;57622;42.630;23.378;2022-07-23T07:32:39;15.07;;;5.97;;
70233;SDS011;57622;42.630;23.378;2022-07-23T07:35:05;17.98;;;6.25;;
70233;SDS011;57622;42.630;23.378;2022-07-23T07:37:31;11.30;;;6.10;;
70233;SDS011;57622;42.630;23.378;2022-07-23T07:39:56;16.55;;;6.28;;
70233;SDS011;57622;42.630;23.378;2022-07-23T07:42:22;15.07;;;6.47;;
70233;SDS011;57622;42.630;23.378;2022-07-23T07:44:47;13.45;;;5.60;;
70233;SDS011;57622;42.630;23.378;2022-07-23T07:47:13;11.57;;;6.10;;
70233;SDS011;57622;42.630;23.378;2022-07-23T07:49:40;15.07;;;6.32;;
70233;SDS011;57622;42.630;23.378;2022-07-23T07:52:06;12.40;;;6.40;;
70233;SDS011;57622;42.630;23.378;2022-07-23T07:54:32;11.73;;;5.95;;
70233;SDS011;57622;42.630;23.378;2022-07-23T07:56:57;14.60;;;6.25;;
70233;SDS011;57622;42.630;23.378;2022-07-23T07:59:23;13.68;;;6.60;;
70233;SDS011;57622;42.630;23.378;2022-07-23T08:01:48;15.15;;;6.57;;
70233;SDS011;57622;42.630;23.378;2022-07-23T08:04:14;13.82;;;6.07;;
70233;SDS011;57622;42.630;23.378;2022-07-23T08:06:39;15.13;;;6.57;;
70233;SDS011;57622;42.630;23.378;2022-07-23T08:09:05;14.45;;;6.07;;
70233;SDS011;57622;42.630;23.378;2022-07-23T08:11:30;12.00;;;6.00;;
70233;SDS011;57622;42.630;23.378;2022-07-23T08:13:56;16.67;;;6.05;;
70233;SDS011;57622;42.630;23.378;2022-07-23T08:16:21;15.18;;;5.93;;
70233;SDS011;57622;42.630;23.378;2022-07-23T08:18:47;15.07;;;6.20;;
70233;SDS011;57622;42.630;23.378;2022-07-23T08:21:12;15.65;;;6.72;;
70233;SDS011;57622;42.630;23.378;2022-07-23T08:23:38;12.10;;;6.30;;
70233;SDS011;57622;42.630;23.378;2022-07-23T08:26:03;18.13;;;6.22;;
70233;SDS011;57622;42.630;23.378;2022-07-23T08:28:29;12.90;;;6.10;;
70233;SDS011;57622;42.630;23.378;2022-07-23T08:30:58;14.45;;;6.32;;
70233;SDS011;57622;42.630;23.378;2022-07-23T08:33:24;16.42;;;6.35;;
70233;SDS011;57622;42.630;23.378;2022-07-23T08:35:50;13.65;;;6.72;;
70233;SDS011;57622;42.630;23.378;2022-07-23T08:38:18;16.15;;;6.65;;
70233;SDS011;57622;42.630;23.378;2022-07-23T08:40:47;14.13;;;7.55;;
70233;SDS011;57622;42.630;23.378;2022-07-23T08:43:14;17.63;;;6.60;;
70233;SDS011;57622;42.630;23.378;2022-07-23T08:45:45;11.77;;;5.80;;
70233;SDS011;57622;42.630;23.378;2022-07-23T08:48:22;13.60;;;5.90;;
70233;SDS011;57622;42.630;23.378;2022-07-23T08:50:59;16.58;;;6.60;;
70233;SDS011;57622;42.630;23.378;2022-07-23T08:53:26;13.45;;;6.22;;
70233;SDS011;57622;42.630;23.378;2022-07-23T08:55:56;13.65;;;5.97;;
70233;SDS011;57622;42.630;23.378;2022-07-23T08:58:24;12.98;;;6.60;;
70233;SDS011;57622;42.630;23.378;2022-07-23T09:00:50;15.07;;;6.32;;
70233;SDS011;57622;42.630;23.378;2022-07-23T09:03:23;17.77;;;6.55;;
70233;SDS011;57622;42.630;23.378;2022-07-23T09:05:51;13.90;;;6.13;;
70233;SDS011;57622;42.630;23.378;2022-07-23T09:08:21;15.48;;;6.60;;
70233;SDS011;57622;42.630;23.378;2022-07-23T09:13:24;14.20;;;6.25;;
70233;SDS011;57622;42.630;23.378;2022-07-23T09:15:54;17.67;;;6.47;;
70233;SDS011;57622;42.630;23.378;2022-07-23T09:31:34;15.38;;;6.35;;
70233;SDS011;57622;42.630;23.378;2022-07-23T09:34:11;15.10;;;6.43;;
70233;SDS011;57622;42.630;23.378;2022-07-23T09:36:42;14.93;;;6.50;;
70233;SDS011;57622;42.630;23.378;2022-07-23T09:39:09;14.05;;;5.78;;
70233;SDS011;57622;42.630;23.378;2022-07-23T09:41:37;12.98;;;5.85;;
70233;SDS011;57622;42.630;23.378;2022-07-23T09:44:11;14.13;;;6.00;;
70233;SDS011;57622;42.630;23.378;2022-07-23T09:46:38;11.82;;;6.00;;
70233;SDS011;57622;42.630;23.378;2022-07-23T09:49:38;12.75;;;5.40;;
70233;SDS011;57622;42.630;23.378;2022-07-23T09:51:58;14.15;;;5.70;;
70233;SDS011;57622;42.630;23.378;2022-07-23T09:56:56;13.25;;;5.85;;
70233;SDS011;57622;42.630;23.378;2022-07-23T09:59:37;12.48;;;5.97;;
70233;SDS011;57622;42.630;23.378;2022-07-23T10:02:04;15.20;;;5.68;;
70233;SDS011;57622;42.630;23.378;2022-07-23T10:04:31;16.52;;;6.38;;
70233;SDS011;57622;42.630;23.378;2022-07-23T10:07:01;12.50;;;5.40;;
70233;SDS011;57622;42.630;23.378;2022-07-23T10:09:30;16.13;;;5.72;;
70233;SDS011;57622;42.630;23.378;2022-07-23T10:11:58;13.38;;;5.85;;
70233;SDS011;57622;42.630;23.378;2022-07-23T10:14:39;13.10;;;4.90;;
70233;SDS011;57622;42.630;23.378;2022-07-23T10:17:06;13.40;;;5.72;;
70233;SDS011;57622;42.630;23.378;2022-07-23T10:19:33;16.08;;;5.70;;
70233;SDS011;57622;42.630;23.378;2022-07-23T10:22:03;15.63;;;5.47;;
70233;SDS011;57622;42.630;23.378;2022-07-23T10:24:36;12.75;;;5.82;;
70233;SDS011;57622;42.630;23.378;2022-07-23T10:27:29;13.98;;;5.85;;
70233;SDS011;57622;42.630;23.378;2022-07-23T10:35:31;11.57;;;4.80;;
70233;SDS011;57622;42.630;23.378;2022-07-23T10:40:34;14.25;;;5.57;;
70233;SDS011;57622;42.630;23.378;2022-07-23T10:43:00;12.65;;;5.00;;
70233;SDS011;57622;42.630;23.378;2022-07-23T10:45:32;13.65;;;4.50;;
70233;SDS011;57622;42.630;23.378;2022-07-23T10:48:19;12.75;;;4.65;;
70233;SDS011;57622;42.630;23.378;2022-07-23T10:51:05;15.77;;;4.88;;
70233;SDS011;57622;42.630;23.378;2022-07-23T10:59:19;13.52;;;4.75;;
70233;SDS011;57622;42.630;23.378;2022-07-23T11:01:45;13.10;;;4.65;;
70233;SDS011;57622;42.630;23.378;2022-07-23T11:04:11;13.45;;;4.85;;
70233;SDS011;57622;42.630;23.378;2022-07-23T11:09:28;13.13;;;4.25;;
70233;SDS011;57622;42.630;23.378;2022-07-23T11:17:27;13.73;;;4.63;;
70233;SDS011;57622;42.630;23.378;2022-07-23T11:22:47;12.23;;;5.00;;
70233;SDS011;57622;42.630;23.378;2022-07-23T11:25:28;14.20;;;5.50;;
70233;SDS011;57622;42.630;23.378;2022-07-23T11:30:57;18.55;;;4.65;;
70233;SDS011;57622;42.630;23.378;2022-07-23T11:33:23;20.30;;;5.07;;
70233;SDS011;57622;42.630;23.378;2022-07-23T11:36:06;16.33;;;5.40;;
70233;SDS011;57622;42.630;23.378;2022-07-23T11:38:32;14.32;;;4.70;;
70233;SDS011;57622;42.630;23.378;2022-07-23T11:40:57;15.07;;;4.93;;
70233;SDS011;57622;42.630;23.378;2022-07-23T11:43:23;15.52;;;4.63;;
70233;SDS011;57622;42.630;23.378;2022-07-23T11:45:58;12.75;;;4.35;;
70233;SDS011;57622;42.630;23.378;2022-07-23T11:48:26;14.88;;;5.00;;
70233;SDS011;57622;42.630;23.378;2022-07-23T11:50:54;12.80;;;4.53;;
70233;SDS011;57622;42.630;23.378;2022-07-23T11:53:22;15.55;;;4.78;;
70233;SDS011;57622;42.630;23.378;2022-07-23T11:58:17;19.40;;;4.80;;
70233;SDS011;57622;42.630;23.378;2022-07-23T12:00:45;13.32;;;4.32;;
70233;SDS011;57622;42.630;23.378;2022-07-23T12:03:12;17.50;;;4.63;;
70233;SDS011;57622;42.630;23.378;2022-07-23T12:05:37;13.50;;;4.50;;
70233;SDS011;57622;42.630;23.378;2022-07-23T12:08:05;15.57;;;4.82;;
70233;SDS011;57622;42.630;23.378;2022-07-23T12:10:39;16.77;;;5.15;;
70233;SDS011;57622;42.630;23.378;2022-07-23T12:13:14;17.85;;;4.78;;
70233;SDS011;57622;42.630;23.378;2022-07-23T12:15:48;14.38;;;4.45;;
70233;SDS011;57622;42.630;23.378;2022-07-23T12:18:20;15.35;;;4.57;;
70233;SDS011;57622;42.630;23.378;2022-07-23T12:20:49;18.10;;;4.60;;
70233;SDS011;57622;42.630;23.378;2022-07-23T12:23:17;18.83;;;4.60;;
70233;SDS011;57622;42.630;23.378;2022-07-23T12:25:44;15.45;;;4.90;;
70233;SDS011;57622;42.630;23.378;2022-07-23T12:28:12;16.92;;;5.35;;
70233;SDS011;57622;42.630;23.378;2022-07-23T12:30:41;18.95;;;5.40;;
70233;SDS011;57622;42.630;23.378;2022-07-23T12:33:07;22.25;;;6.70;;
70233;SDS011;57622;42.630;23.378;2022-07-23T12:35:38;19.73;;;5.07;;
70233;SDS011;57622;42.630;23.378;2022-07-23T12:38:13;16.33;;;5.70;;
70233;SDS011;57622;42.630;23.378;2022-07-23T12:40:56;15.03;;;4.53;;
70233;SDS011;57622;42.630;23.378;2022-07-23T12:43:25;16.38;;;6.63;;
70233;SDS011;57622;42.630;23.378;2022-07-23T12:45:53;14.85;;;5.15;;
70233;SDS011;57622;42.630;23.378;2022-07-23T12:48:22;16.45;;;4.82;;
70233;SDS011;57622;42.630;23.378;2022-07-23T12:51:00;15.20;;;4.55;;
70233;SDS011;57622;42.630;23.378;2022-07-23T12:53:28;17.45;;;4.85;;
70233;SDS011;57622;42.630;23.378;2022-07-23T12:55:59;18.65;;;4.70;;
70233;SDS011;57622;42.630;23.378;2022-07-23T12:58:26;17.92;;;7.18;;
70233;SDS011;57622;42.630;23.378;2022-07-23T13:01:04;17.77;;;7.18;;
70233;SDS011;57622;42.630;23.378;2022-07-23T13:03:40;20.75;;;6.75;;
70233;SDS011;57622;42.630;23.378;2022-07-23T13:06:10;16.77;;;5.10;;
70233;SDS011;57622;42.630;23.378;2022-07-23T13:08:37;19.00;;;5.10;;
70233;SDS011;57622;42.630;23.378;2022-07-23T13:11:04;16.10;;;5.90;;
70233;SDS011;57622;42.630;23.378;2022-07-23T13:13:32;20.98;;;6.68;;
70233;SDS011;57622;42.630;23.378;2022-07-23T13:16:00;16.90;;;4.95;;
70233;SDS011;57622;42.630;23.378;2022-07-23T13:18:27;13.85;;;4.63;;
70233;SDS011;57622;42.630;23.378;2022-07-23T13:20:53;15.10;;;4.40;;
70233;SDS011;57622;42.630;23.378;2022-07-23T13:23:20;15.68;;;4.68;;
70233;SDS011;57622;42.630;23.378;2022-07-23T13:25:46;13.85;;;4.57;;
70233;SDS011;57622;42.630;23.378;2022-07-23T13:28:12;14.93;;;4.35;;
70233;SDS011;57622;42.630;23.378;2022-07-23T13:30:39;15.57;;;4.45;;
70233;SDS011;57622;42.630;23.378;2022-07-23T13:33:06;17.40;;;4.30;;
70233;SDS011;57622;42.630;23.378;2022-07-23T13:35:32;16.63;;;4.57;;
70233;SDS011;57622;42.630;23.378;2022-07-23T13:37:59;20.20;;;4.22;;
70233;SDS011;57622;42.630;23.378;2022-07-23T13:40:24;20.83;;;5.72;;
70233;SDS011;57622;42.630;23.378;2022-07-23T13:42:50;14.13;;;4.72;;
70233;SDS011;57622;42.630;23.378;2022-07-23T13:45:15;16.38;;;4.70;;
70233;SDS011;57622;42.630;23.378;2022-07-23T13:47:41;17.20;;;4.80;;
70233;SDS011;57622;42.630;23.378;2022-07-23T13:50:07;14.90;;;4.50;;
70233;SDS011;57622;42.630;23.378;2022-07-23T13:52:33;13.95;;;4.22;;
70233;SDS011;57622;42.630;23.378;2022-07-23T13:55:00;11.77;;;4.57;;
70233;SDS011;57622;42.630;23.378;2022-07-23T13:57:27;17.15;;;4.97;;
70233;SDS011;57622;42.630;23.378;2022-07-23T13:59:52;16.80;;;4.43;;
70233;SDS011;57622;42.630;23.378;2022-07-23T14:02:17;17.92;;;4.70;;
70233;SDS011;57622;42.630;23.378;2022-07-23T14:04:43;21.38;;;4.88;;
70233;SDS011;57622;42.630;23.378;2022-07-23T14:07:09;15.45;;;5.53;;
70233;SDS011;57622;42.630;23.378;2022-07-23T14:09:35;19.55;;;4.95;;
70233;SDS011;57622;42.630;23.378;2022-07-23T14:12:01;17.67;;;4.90;;
70233;SDS011;57622;42.630;23.378;2022-07-23T14:14:26;18.55;;;5.00;;
70233;SDS011;57622;42.630;23.378;2022-07-23T14:16:52;14.48;;;4.50;;
70233;SDS011;57622;42.630;23.378;2022-07-23T14:19:17;17.30;;;5.05;;
70233;SDS011;57622;42.630;23.378;2022-07-23T14:21:43;16.13;;;4.53;;
70233;SDS011;57622;42.630;23.378;2022-07-23T14:24:08;17.08;;;4.90;;
70233;SDS011;57622;42.630;23.378;2022-07-23T14:26:34;17.73;;;4.90;;
70233;SDS011;57622;42.630;23.378;2022-07-23T14:29:00;17.63;;;5.20;;
70233;SDS011;57622;42.630;23.378;2022-07-23T14:31:26;15.05;;;5.22;;
70233;SDS011;57622;42.630;23.378;2022-07-23T14:33:51;14.65;;;5.00;;
70233;SDS011;57622;42.630;23.378;2022-07-23T14:36:17;15.85;;;4.70;;
70233;SDS011;57622;42.630;23.378;2022-07-23T14:38:42;17.38;;;5.10;;
70233;SDS011;57622;42.630;23.378;2022-07-23T14:41:08;13.35;;;6.30;;
70233;SDS011;57622;42.630;23.378;2022-07-23T14:43:34;18.63;;;5.90;;
70233;SDS011;57622;42.630;23.378;2022-07-23T14:46:00;14.75;;;4.97;;
70233;SDS011;57622;42.630;23.378;2022-07-23T14:48:26;15.52;;;4.75;;
70233;SDS011;57622;42.630;23.378;2022-07-23T14:50:51;13.63;;;4.80;;
70233;SDS011;57622;42.630;23.378;2022-07-23T14:53:17;16.58;;;5.35;;
70233;SDS011;57622;42.630;23.378;2022-07-23T14:55:42;20.80;;;6.05;;
70233;SDS011;57622;42.630;23.378;2022-07-23T14:58:08;15.25;;;5.38;;
70233;SDS011;57622;42.630;23.378;2022-07-23T15:00:34;17.08;;;4.82;;
70233;SDS011;57622;42.630;23.378;2022-07-23T15:02:59;14.98;;;5.35;;
70233;SDS011;57622;42.630;23.378;2022-07-23T15:05:25;14.70;;;4.90;;
70233;SDS011;57622;42.630;23.378;2022-07-23T15:07:50;18.80;;;6.20;;